Weather at Apataki Airport

Public forecast

Using degrees Celsius for public forecast. Weather courtesy of forecast.io.

Closest aviation weather report (METAR) to Apataki Airport

Closest report is Faa'a International Airport, 218.8 nm (405.2 km) WSW.

2024/04/13 12:30 (retrieved 19 minutes ago)

NTAA 131230Z AUTO 15004KT 9999 BKN058 26/21 Q1012 NOSIG

Closest aviation forecast (TAF) to Apataki Airport

Closest forecast is Faa'a International Airport, 218.8 nm (405.2 km) WSW.

2024/04/13 12:06 (retrieved 43 minutes ago)

TAF NTAA 131100Z 1312/1418 VRB05KT 9999 FEW050